sensor_id;sensor_type;location;lat;lon;timestamp;temperature;humidity
34153;DHT22;20426;48.372;10.888;2022-09-21T00:00:20;9.50;99.90
34153;DHT22;20426;48.372;10.888;2022-09-21T00:00:51;9.50;99.90
34153;DHT22;20426;48.372;10.888;2022-09-21T00:01:27;9.50;99.90
34153;DHT22;20426;48.372;10.888;2022-09-21T00:01:58;9.50;99.90
34153;DHT22;20426;48.372;10.888;2022-09-21T00:02:29;9.50;99.90
34153;DHT22;20426;48.372;10.888;2022-09-21T00:02:59;9.50;99.90
34153;DHT22;20426;48.372;10.888;2022-09-21T00:03:30;9.50;99.90
34153;DHT22;20426;48.372;10.888;2022-09-21T00:04:02;9.50;99.90
34153;DHT22;20426;48.372;10.888;2022-09-21T00:04:33;9.50;99.90
34153;DHT22;20426;48.372;10.888;2022-09-21T00:05:04;9.50;99.90
34153;DHT22;20426;48.372;10.888;2022-09-21T00:05:37;9.50;99.90
34153;DHT22;20426;48.372;10.888;2022-09-21T00:06:13;9.50;99.90
34153;DHT22;20426;48.372;10.888;2022-09-21T00:06:44;9.50;99.90
34153;DHT22;20426;48.372;10.888;2022-09-21T00:07:16;9.40;99.90
34153;DHT22;20426;48.372;10.888;2022-09-21T00:07:46;9.40;99.90
34153;DHT22;20426;48.372;10.888;2022-09-21T00:08:17;9.40;99.90
34153;DHT22;20426;48.372;10.888;2022-09-21T00:08:48;9.40;99.90
34153;DHT22;20426;48.372;10.888;2022-09-21T00:09:19;9.40;99.90
34153;DHT22;20426;48.372;10.888;2022-09-21T00:09:50;9.30;99.90
34153;DHT22;20426;48.372;10.888;2022-09-21T00:10:21;9.30;99.90
34153;DHT22;20426;48.372;10.888;2022-09-21T00:10:51;9.30;99.90
34153;DHT22;20426;48.372;10.888;2022-09-21T00:11:26;9.30;99.90
34153;DHT22;20426;48.372;10.888;2022-09-21T00:11:57;9.30;99.90
34153;DHT22;20426;48.372;10.888;2022-09-21T00:12:28;9.30;99.90
34153;DHT22;20426;48.372;10.888;2022-09-21T00:13:00;9.30;99.90
34153;DHT22;20426;48.372;10.888;2022-09-21T00:13:34;9.30;99.90
34153;DHT22;20426;48.372;10.888;2022-09-21T00:14:11;9.20;99.90
34153;DHT22;20426;48.372;10.888;2022-09-21T00:14:42;9.20;99.90
34153;DHT22;20426;48.372;10.888;2022-09-21T00:15:15;9.20;99.90
34153;DHT22;20426;48.372;10.888;2022-09-21T00:15:47;9.20;99.90
34153;DHT22;20426;48.372;10.888;2022-09-21T00:16:18;9.20;99.90
34153;DHT22;20426;48.372;10.888;2022-09-21T00:16:48;9.20;99.90
34153;DHT22;20426;48.372;10.888;2022-09-21T00:17:19;9.20;99.90
34153;DHT22;20426;48.372;10.888;2022-09-21T00:17:53;9.20;99.90
34153;DHT22;20426;48.372;10.888;2022-09-21T00:18:25;9.20;99.90
34153;DHT22;20426;48.372;10.888;2022-09-21T00:18:56;9.10;99.90
34153;DHT22;20426;48.372;10.888;2022-09-21T00:19:27;9.10;99.90
34153;DHT22;20426;48.372;10.888;2022-09-21T00:19:57;9.10;99.90
34153;DHT22;20426;48.372;10.888;2022-09-21T00:20:30;9.00;99.90
34153;DHT22;20426;48.372;10.888;2022-09-21T00:21:07;9.00;99.90
34153;DHT22;20426;48.372;10.888;2022-09-21T00:21:38;9.00;99.90
34153;DHT22;20426;48.372;10.888;2022-09-21T00:22:08;9.00;99.90
34153;DHT22;20426;48.372;10.888;2022-09-21T00:22:40;9.00;99.90
34153;DHT22;20426;48.372;10.888;2022-09-21T00:23:11;9.00;99.90
34153;DHT22;20426;48.372;10.888;2022-09-21T00:23:42;8.90;99.90
34153;DHT22;20426;48.372;10.888;2022-09-21T00:24:13;8.90;99.90
34153;DHT22;20426;48.372;10.888;2022-09-21T00:24:44;8.90;99.90
34153;DHT22;20426;48.372;10.888;2022-09-21T00:25:15;9.00;99.90
34153;DHT22;20426;48.372;10.888;2022-09-21T00:25:46;8.90;99.90
34153;DHT22;20426;48.372;10.888;2022-09-21T00:26:19;8.90;99.90
34153;DHT22;20426;48.372;10.888;2022-09-21T00:26:50;8.90;99.90
34153;DHT22;20426;48.372;10.888;2022-09-21T00:27:21;8.90;99.90
34153;DHT22;20426;48.372;10.888;2022-09-21T00:27:59;8.80;99.90
34153;DHT22;20426;48.372;10.888;2022-09-21T00:28:30;8.80;99.90
34153;DHT22;20426;48.372;10.888;2022-09-21T00:29:02;8.80;99.90
34153;DHT22;20426;48.372;10.888;2022-09-21T00:29:33;8.80;99.90
34153;DHT22;20426;48.372;10.888;2022-09-21T00:30:05;8.70;99.90
34153;DHT22;20426;48.372;10.888;2022-09-21T00:30:37;8.70;99.90
34153;DHT22;20426;48.372;10.888;2022-09-21T00:31:10;8.80;99.90
34153;DHT22;20426;48.372;10.888;2022-09-21T00:31:41;8.80;99.90
34153;DHT22;20426;48.372;10.888;2022-09-21T00:32:12;8.80;99.90
34153;DHT22;20426;48.372;10.888;2022-09-21T00:32:43;8.80;99.90
34153;DHT22;20426;48.372;10.888;2022-09-21T00:33:14;8.80;99.90
34153;DHT22;20426;48.372;10.888;2022-09-21T00:33:44;8.80;99.90
34153;DHT22;20426;48.372;10.888;2022-09-21T00:34:15;8.80;99.90
34153;DHT22;20426;48.372;10.888;2022-09-21T00:34:46;8.80;99.90
34153;DHT22;20426;48.372;10.888;2022-09-21T00:35:16;8.80;99.90
34153;DHT22;20426;48.372;10.888;2022-09-21T00:35:47;8.80;99.90
34153;DHT22;20426;48.372;10.888;2022-09-21T00:36:21;8.80;99.90
34153;DHT22;20426;48.372;10.888;2022-09-21T00:36:52;8.80;99.90
34153;DHT22;20426;48.372;10.888;2022-09-21T00:37:23;8.80;99.90
34153;DHT22;20426;48.372;10.888;2022-09-21T00:37:54;8.90;99.90
34153;DHT22;20426;48.372;10.888;2022-09-21T00:38:24;8.80;99.90
34153;DHT22;20426;48.372;10.888;2022-09-21T00:38:57;8.80;99.90
34153;DHT22;20426;48.372;10.888;2022-09-21T00:39:29;8.80;99.90
34153;DHT22;20426;48.372;10.888;2022-09-21T00:39:59;8.80;99.90
34153;DHT22;20426;48.372;10.888;2022-09-21T00:40:30;8.80;99.90
34153;DHT22;20426;48.372;10.888;2022-09-21T00:41:02;8.80;99.90
34153;DHT22;20426;48.372;10.888;2022-09-21T00:41:33;8.70;99.90
34153;DHT22;20426;48.372;10.888;2022-09-21T00:42:16;8.70;99.90
34153;DHT22;20426;48.372;10.888;2022-09-21T00:42:47;8.70;99.90
34153;DHT22;20426;48.372;10.888;2022-09-21T00:43:18;8.70;99.90
34153;DHT22;20426;48.372;10.888;2022-09-21T00:44:45;8.80;99.90
34153;DHT22;20426;48.372;10.888;2022-09-21T00:45:16;8.80;99.90
34153;DHT22;20426;48.372;10.888;2022-09-21T00:46:05;8.80;99.90
34153;DHT22;20426;48.372;10.888;2022-09-21T00:46:39;8.80;99.90
34153;DHT22;20426;48.372;10.888;2022-09-21T00:47:13;8.80;99.90
34153;DHT22;20426;48.372;10.888;2022-09-21T00:47:44;8.80;99.90
34153;DHT22;20426;48.372;10.888;2022-09-21T00:48:15;8.80;99.90
34153;DHT22;20426;48.372;10.888;2022-09-21T00:48:46;8.80;99.90
34153;DHT22;20426;48.372;10.888;2022-09-21T00:49:19;8.80;99.90
34153;DHT22;20426;48.372;10.888;2022-09-21T00:49:52;8.70;99.90
34153;DHT22;20426;48.372;10.888;2022-09-21T00:50:24;8.70;99.90
34153;DHT22;20426;48.372;10.888;2022-09-21T00:50:58;8.70;99.90
34153;DHT22;20426;48.372;10.888;2022-09-21T00:51:31;8.70;99.90
34153;DHT22;20426;48.372;10.888;2022-09-21T00:52:04;8.70;99.90
34153;DHT22;20426;48.372;10.888;2022-09-21T00:52:45;8.60;99.90
34153;DHT22;20426;48.372;10.888;2022-09-21T00:53:16;8.60;99.90
34153;DHT22;20426;48.372;10.888;2022-09-21T00:53:51;8.60;99.90
34153;DHT22;20426;48.372;10.888;2022-09-21T00:54:29;8.50;99.90
34153;DHT22;20426;48.372;10.888;2022-09-21T00:55:09;8.50;99.90
34153;DHT22;20426;48.372;10.888;2022-09-21T00:55:44;8.40;99.90
34153;DHT22;20426;48.372;10.888;2022-09-21T00:56:16;8.40;99.90
34153;DHT22;20426;48.372;10.888;2022-09-21T00:56:47;8.40;99.90
34153;DHT22;20426;48.372;10.888;2022-09-21T00:57:20;8.40;99.90
34153;DHT22;20426;48.372;10.888;2022-09-21T00:57:56;8.40;99.90
34153;DHT22;20426;48.372;10.888;2022-09-21T00:58:33;8.40;99.90
34153;DHT22;20426;48.372;10.888;2022-09-21T00:59:05;8.40;99.90
34153;DHT22;20426;48.372;10.888;2022-09-21T00:59:38;8.40;99.90
34153;DHT22;20426;48.372;10.888;2022-09-21T01:00:10;8.40;99.90
34153;DHT22;20426;48.372;10.888;2022-09-21T01:00:41;8.30;99.90
34153;DHT22;20426;48.372;10.888;2022-09-21T01:01:13;8.40;99.90
34153;DHT22;20426;48.372;10.888;2022-09-21T01:01:46;8.40;99.90
34153;DHT22;20426;48.372;10.888;2022-09-21T01:02:17;8.30;99.90
34153;DHT22;20426;48.372;10.888;2022-09-21T01:02:48;8.40;99.90
34153;DHT22;20426;48.372;10.888;2022-09-21T01:03:19;8.30;99.90
34153;DHT22;20426;48.372;10.888;2022-09-21T01:03:51;8.30;99.90
34153;DHT22;20426;48.372;10.888;2022-09-21T01:04:23;8.30;99.90
34153;DHT22;20426;48.372;10.888;2022-09-21T01:04:54;8.30;99.90
34153;DHT22;20426;48.372;10.888;2022-09-21T01:05:25;8.30;99.90
34153;DHT22;20426;48.372;10.888;2022-09-21T01:05:56;8.30;99.90
34153;DHT22;20426;48.372;10.888;2022-09-21T01:06:26;8.30;99.90
34153;DHT22;20426;48.372;10.888;2022-09-21T01:07:01;8.30;99.90
34153;DHT22;20426;48.372;10.888;2022-09-21T01:07:39;8.30;99.90
34153;DHT22;20426;48.372;10.888;2022-09-21T01:08:11;8.20;99.90
34153;DHT22;20426;48.372;10.888;2022-09-21T01:08:44;8.30;99.90
34153;DHT22;20426;48.372;10.888;2022-09-21T01:09:17;8.20;99.90
34153;DHT22;20426;48.372;10.888;2022-09-21T01:09:52;8.20;99.90
34153;DHT22;20426;48.372;10.888;2022-09-21T01:10:23;8.20;99.90
34153;DHT22;20426;48.372;10.888;2022-09-21T01:11:20;8.20;99.90
34153;DHT22;20426;48.372;10.888;2022-09-21T01:14:56;8.30;99.90
34153;DHT22;20426;48.372;10.888;2022-09-21T01:17:57;8.30;99.90
34153;DHT22;20426;48.372;10.888;2022-09-21T01:18:41;8.20;99.90
34153;DHT22;20426;48.372;10.888;2022-09-21T01:24:59;8.10;99.90
34153;DHT22;20426;48.372;10.888;2022-09-21T01:29:41;8.00;99.90
34153;DHT22;20426;48.372;10.888;2022-09-21T01:30:15;8.00;99.90
34153;DHT22;20426;48.372;10.888;2022-09-21T01:30:48;7.90;99.90
34153;DHT22;20426;48.372;10.888;2022-09-21T01:31:25;7.90;99.90
34153;DHT22;20426;48.372;10.888;2022-09-21T01:32:00;7.90;99.90
34153;DHT22;20426;48.372;10.888;2022-09-21T01:32:46;7.90;99.90
34153;DHT22;20426;48.372;10.888;2022-09-21T01:33:26;7.90;99.90
34153;DHT22;20426;48.372;10.888;2022-09-21T01:34:03;7.80;99.90
34153;DHT22;20426;48.372;10.888;2022-09-21T01:34:56;7.80;99.90
34153;DHT22;20426;48.372;10.888;2022-09-21T01:35:36;7.80;99.90
34153;DHT22;20426;48.372;10.888;2022-09-21T01:36:13;7.80;99.90
34153;DHT22;20426;48.372;10.888;2022-09-21T01:36:47;7.80;99.90
34153;DHT22;20426;48.372;10.888;2022-09-21T01:38:29;7.80;99.90
34153;DHT22;20426;48.372;10.888;2022-09-21T01:39:07;7.80;99.90
34153;DHT22;20426;48.372;10.888;2022-09-21T01:39:41;7.80;99.90
34153;DHT22;20426;48.372;10.888;2022-09-21T01:40:19;7.80;99.90
34153;DHT22;20426;48.372;10.888;2022-09-21T01:40:54;7.80;99.90
34153;DHT22;20426;48.372;10.888;2022-09-21T01:41:29;7.70;99.90
34153;DHT22;20426;48.372;10.888;2022-09-21T01:42:04;7.80;99.90
34153;DHT22;20426;48.372;10.888;2022-09-21T01:42:38;7.80;99.90
34153;DHT22;20426;48.372;10.888;2022-09-21T01:43:13;7.80;99.90
34153;DHT22;20426;48.372;10.888;2022-09-21T01:43:50;7.80;99.90
34153;DHT22;20426;48.372;10.888;2022-09-21T01:44:26;7.80;99.90
34153;DHT22;20426;48.372;10.888;2022-09-21T01:45:00;7.80;99.90
34153;DHT22;20426;48.372;10.888;2022-09-21T01:45:37;7.90;99.90
34153;DHT22;20426;48.372;10.888;2022-09-21T01:46:12;7.90;99.90
34153;DHT22;20426;48.372;10.888;2022-09-21T01:46:46;7.90;99.90
34153;DHT22;20426;48.372;10.888;2022-09-21T01:47:18;7.90;99.90
34153;DHT22;20426;48.372;10.888;2022-09-21T01:47:50;8.00;99.90
34153;DHT22;20426;48.372;10.888;2022-09-21T01:48:23;8.00;99.90
34153;DHT22;20426;48.372;10.888;2022-09-21T01:48:58;8.10;99.90
34153;DHT22;20426;48.372;10.888;2022-09-21T01:49:34;8.10;99.90
34153;DHT22;20426;48.372;10.888;2022-09-21T01:50:07;8.10;99.90
34153;DHT22;20426;48.372;10.888;2022-09-21T01:50:43;8.10;99.90
34153;DHT22;20426;48.372;10.888;2022-09-21T01:51:15;8.10;99.90
34153;DHT22;20426;48.372;10.888;2022-09-21T01:51:52;8.10;99.90
34153;DHT22;20426;48.372;10.888;2022-09-21T01:52:32;8.10;99.90
34153;DHT22;20426;48.372;10.888;2022-09-21T01:54:17;8.00;99.90
34153;DHT22;20426;48.372;10.888;2022-09-21T01:55:15;8.00;99.90
34153;DHT22;20426;48.372;10.888;2022-09-21T01:55:52;8.00;99.90
34153;DHT22;20426;48.372;10.888;2022-09-21T01:56:27;8.00;99.90
34153;DHT22;20426;48.372;10.888;2022-09-21T01:57:12;8.00;99.90
34153;DHT22;20426;48.372;10.888;2022-09-21T01:59:49;8.00;99.90
34153;DHT22;20426;48.372;10.888;2022-09-21T02:00:21;8.00;99.90
34153;DHT22;20426;48.372;10.888;2022-09-21T02:00:54;8.00;99.90
34153;DHT22;20426;48.372;10.888;2022-09-21T02:01:28;8.00;99.90
34153;DHT22;20426;48.372;10.888;2022-09-21T02:02:09;8.00;99.90
34153;DHT22;20426;48.372;10.888;2022-09-21T02:03:56;7.90;99.90
34153;DHT22;20426;48.372;10.888;2022-09-21T02:04:28;7.90;99.90
34153;DHT22;20426;48.372;10.888;2022-09-21T02:05:01;7.90;99.90
34153;DHT22;20426;48.372;10.888;2022-09-21T02:05:32;7.80;99.90
34153;DHT22;20426;48.372;10.888;2022-09-21T02:06:05;7.80;99.90
34153;DHT22;20426;48.372;10.888;2022-09-21T02:06:42;7.80;99.90
34153;DHT22;20426;48.372;10.888;2022-09-21T02:07:15;7.80;99.90
34153;DHT22;20426;48.372;10.888;2022-09-21T02:07:47;7.80;99.90
34153;DHT22;20426;48.372;10.888;2022-09-21T02:08:19;7.70;99.90
34153;DHT22;20426;48.372;10.888;2022-09-21T02:08:49;7.70;99.90
34153;DHT22;20426;48.372;10.888;2022-09-21T02:09:20;7.70;99.90
34153;DHT22;20426;48.372;10.888;2022-09-21T02:09:53;7.70;99.90
34153;DHT22;20426;48.372;10.888;2022-09-21T02:10:38;7.70;99.90
34153;DHT22;20426;48.372;10.888;2022-09-21T02:11:09;7.70;99.90
34153;DHT22;20426;48.372;10.888;2022-09-21T02:11:42;7.70;99.90
34153;DHT22;20426;48.372;10.888;2022-09-21T02:12:14;7.70;99.90
34153;DHT22;20426;48.372;10.888;2022-09-21T02:12:46;7.70;99.90
34153;DHT22;20426;48.372;10.888;2022-09-21T02:13:19;7.80;99.90
34153;DHT22;20426;48.372;10.888;2022-09-21T02:13:52;7.80;99.90
34153;DHT22;20426;48.372;10.888;2022-09-21T02:14:24;7.70;99.90
34153;DHT22;20426;48.372;10.888;2022-09-21T02:14:55;7.70;99.90
34153;DHT22;20426;48.372;10.888;2022-09-21T02:16:18;7.80;99.90
34153;DHT22;20426;48.372;10.888;2022-09-21T02:17:13;7.80;99.90
34153;DHT22;20426;48.372;10.888;2022-09-21T02:18:11;7.80;99.90
34153;DHT22;20426;48.372;10.888;2022-09-21T02:19:10;7.80;99.90
34153;DHT22;20426;48.372;10.888;2022-09-21T02:19:49;7.90;99.90
34153;DHT22;20426;48.372;10.888;2022-09-21T02:20:30;7.90;99.90
34153;DHT22;20426;48.372;10.888;2022-09-21T02:21:04;7.90;99.90
34153;DHT22;20426;48.372;10.888;2022-09-21T02:22:56;7.90;99.90
34153;DHT22;20426;48.372;10.888;2022-09-21T02:23:16;7.90;99.90
34153;DHT22;20426;48.372;10.888;2022-09-21T02:23:58;7.90;99.90
34153;DHT22;20426;48.372;10.888;2022-09-21T02:24:56;7.90;99.90
34153;DHT22;20426;48.372;10.888;2022-09-21T02:25:40;7.80;99.90
34153;DHT22;20426;48.372;10.888;2022-09-21T02:26:22;7.90;99.90
34153;DHT22;20426;48.372;10.888;2022-09-21T02:27:04;7.80;99.90
34153;DHT22;20426;48.372;10.888;2022-09-21T02:28:30;7.80;99.90
34153;DHT22;20426;48.372;10.888;2022-09-21T02:30:22;7.80;99.90
34153;DHT22;20426;48.372;10.888;2022-09-21T02:32:02;7.80;99.90
34153;DHT22;20426;48.372;10.888;2022-09-21T02:32:57;7.70;99.90
34153;DHT22;20426;48.372;10.888;2022-09-21T02:33:36;7.70;99.90
34153;DHT22;20426;48.372;10.888;2022-09-21T02:34:18;7.70;99.90
34153;DHT22;20426;48.372;10.888;2022-09-21T02:35:04;7.70;99.90
34153;DHT22;20426;48.372;10.888;2022-09-21T02:36:00;7.70;99.90
34153;DHT22;20426;48.372;10.888;2022-09-21T02:36:42;7.70;99.90
34153;DHT22;20426;48.372;10.888;2022-09-21T02:38:52;7.60;99.90
34153;DHT22;20426;48.372;10.888;2022-09-21T02:40:03;7.70;99.90
34153;DHT22;20426;48.372;10.888;2022-09-21T02:40:55;7.70;99.90
34153;DHT22;20426;48.372;10.888;2022-09-21T02:41:39;7.70;99.90
34153;DHT22;20426;48.372;10.888;2022-09-21T02:42:16;7.70;99.90
34153;DHT22;20426;48.372;10.888;2022-09-21T02:42:58;7.70;99.90
34153;DHT22;20426;48.372;10.888;2022-09-21T02:43:38;7.70;99.90
34153;DHT22;20426;48.372;10.888;2022-09-21T02:44:24;7.70;99.90
34153;DHT22;20426;48.372;10.888;2022-09-21T02:45:10;7.60;99.90
34153;DHT22;20426;48.372;10.888;2022-09-21T02:45:49;7.60;99.90
34153;DHT22;20426;48.372;10.888;2022-09-21T02:46:29;7.60;99.90
34153;DHT22;20426;48.372;10.888;2022-09-21T02:48:21;7.60;99.90
34153;DHT22;20426;48.372;10.888;2022-09-21T02:49:00;7.60;99.90
34153;DHT22;20426;48.372;10.888;2022-09-21T02:49:36;7.50;99.90
34153;DHT22;20426;48.372;10.888;2022-09-21T02:50:15;7.50;99.90
34153;DHT22;20426;48.372;10.888;2022-09-21T02:50:55;7.50;99.90
34153;DHT22;20426;48.372;10.888;2022-09-21T02:51:31;7.50;99.90
34153;DHT22;20426;48.372;10.888;2022-09-21T02:52:08;7.50;99.90
34153;DHT22;20426;48.372;10.888;2022-09-21T02:52:41;7.50;99.90
34153;DHT22;20426;48.372;10.888;2022-09-21T02:53:16;7.50;99.90
34153;DHT22;20426;48.372;10.888;2022-09-21T02:53:49;7.50;99.90
34153;DHT22;20426;48.372;10.888;2022-09-21T02:54:28;7.50;99.90
34153;DHT22;20426;48.372;10.888;2022-09-21T02:55:00;7.50;99.90
34153;DHT22;20426;48.372;10.888;2022-09-21T02:55:33;7.50;99.90
34153;DHT22;20426;48.372;10.888;2022-09-21T02:56:05;7.50;99.90
34153;DHT22;20426;48.372;10.888;2022-09-21T02:56:38;7.50;99.90
34153;DHT22;20426;48.372;10.888;2022-09-21T02:57:10;7.50;99.90
34153;DHT22;20426;48.372;10.888;2022-09-21T02:57:42;7.50;99.90
34153;DHT22;20426;48.372;10.888;2022-09-21T02:58:15;7.50;99.90
34153;DHT22;20426;48.372;10.888;2022-09-21T02:58:51;7.40;99.90
34153;DHT22;20426;48.372;10.888;2022-09-21T02:59:23;7.50;99.90
34153;DHT22;20426;48.372;10.888;2022-09-21T02:59:55;7.50;99.90
34153;DHT22;20426;48.372;10.888;2022-09-21T03:00:26;7.50;99.90
34153;DHT22;20426;48.372;10.888;2022-09-21T03:00:57;7.50;99.90
34153;DHT22;20426;48.372;10.888;2022-09-21T03:01:30;7.40;99.90
34153;DHT22;20426;48.372;10.888;2022-09-21T03:02:01;7.50;99.90
34153;DHT22;20426;48.372;10.888;2022-09-21T03:02:40;7.50;99.90
34153;DHT22;20426;48.372;10.888;2022-09-21T03:03:29;7.50;99.90
34153;DHT22;20426;48.372;10.888;2022-09-21T03:03:59;7.50;99.90
34153;DHT22;20426;48.372;10.888;2022-09-21T03:04:30;7.50;99.90
34153;DHT22;20426;48.372;10.888;2022-09-21T03:05:01;7.50;99.90
34153;DHT22;20426;48.372;10.888;2022-09-21T03:05:33;7.50;99.90
34153;DHT22;20426;48.372;10.888;2022-09-21T03:06:04;7.50;99.90
34153;DHT22;20426;48.372;10.888;2022-09-21T03:06:34;7.50;99.90
34153;DHT22;20426;48.372;10.888;2022-09-21T03:07:06;7.50;99.90
34153;DHT22;20426;48.372;10.888;2022-09-21T03:07:36;7.50;99.90
34153;DHT22;20426;48.372;10.888;2022-09-21T03:08:07;7.50;99.90
34153;DHT22;20426;48.372;10.888;2022-09-21T03:08:38;7.50;99.90
34153;DHT22;20426;48.372;10.888;2022-09-21T03:09:08;7.50;99.90
34153;DHT22;20426;48.372;10.888;2022-09-21T03:09:39;7.50;99.90
34153;DHT22;20426;48.372;10.888;2022-09-21T03:10:10;7.50;99.90
34153;DHT22;20426;48.372;10.888;2022-09-21T03:10:41;7.50;99.90
34153;DHT22;20426;48.372;10.888;2022-09-21T03:11:15;7.60;99.90
34153;DHT22;20426;48.372;10.888;2022-09-21T03:11:46;7.60;99.90
34153;DHT22;20426;48.372;10.888;2022-09-21T03:12:17;7.60;99.90
34153;DHT22;20426;48.372;10.888;2022-09-21T03:12:48;7.60;99.90
34153;DHT22;20426;48.372;10.888;2022-09-21T03:13:18;7.60;99.90
34153;DHT22;20426;48.372;10.888;2022-09-21T03:13:49;7.60;99.90
34153;DHT22;20426;48.372;10.888;2022-09-21T03:14:20;7.60;99.90
34153;DHT22;20426;48.372;10.888;2022-09-21T03:14:52;7.60;99.90
34153;DHT22;20426;48.372;10.888;2022-09-21T03:15:23;7.60;99.90
34153;DHT22;20426;48.372;10.888;2022-09-21T03:16:05;7.60;99.90
34153;DHT22;20426;48.372;10.888;2022-09-21T03:16:37;7.60;99.90
34153;DHT22;20426;48.372;10.888;2022-09-21T03:17:08;7.60;99.90
34153;DHT22;20426;48.372;10.888;2022-09-21T03:17:38;7.60;99.90
34153;DHT22;20426;48.372;10.888;2022-09-21T03:18:09;7.60;99.90
34153;DHT22;20426;48.372;10.888;2022-09-21T03:18:41;7.60;99.90
34153;DHT22;20426;48.372;10.888;2022-09-21T03:19:13;7.60;99.90
34153;DHT22;20426;48.372;10.888;2022-09-21T03:19:45;7.60;99.90
34153;DHT22;20426;48.372;10.888;2022-09-21T03:20:15;7.50;99.90
34153;DHT22;20426;48.372;10.888;2022-09-21T03:20:46;7.60;99.90
34153;DHT22;20426;48.372;10.888;2022-09-21T03:21:17;7.50;99.90
34153;DHT22;20426;48.372;10.888;2022-09-21T03:21:47;7.60;99.90
34153;DHT22;20426;48.372;10.888;2022-09-21T03:22:18;7.60;99.90
34153;DHT22;20426;48.372;10.888;2022-09-21T03:22:50;7.50;99.90
34153;DHT22;20426;48.372;10.888;2022-09-21T03:23:21;7.60;99.90
34153;DHT22;20426;48.372;10.888;2022-09-21T03:23:52;7.60;99.90
34153;DHT22;20426;48.372;10.888;2022-09-21T03:24:22;7.50;99.90
34153;DHT22;20426;48.372;10.888;2022-09-21T03:25:11;7.50;99.90
34153;DHT22;20426;48.372;10.888;2022-09-21T03:25:43;7.60;99.90
34153;DHT22;20426;48.372;10.888;2022-09-21T03:26:15;7.60;99.90
34153;DHT22;20426;48.372;10.888;2022-09-21T03:26:46;7.60;99.90
34153;DHT22;20426;48.372;10.888;2022-09-21T03:27:19;7.60;99.90
34153;DHT22;20426;48.372;10.888;2022-09-21T03:27:50;7.60;99.90
34153;DHT22;20426;48.372;10.888;2022-09-21T03:28:23;7.60;99.90
34153;DHT22;20426;48.372;10.888;2022-09-21T03:28:54;7.60;99.90
34153;DHT22;20426;48.372;10.888;2022-09-21T03:29:24;7.60;99.90
34153;DHT22;20426;48.372;10.888;2022-09-21T03:29:55;7.60;99.90
34153;DHT22;20426;48.372;10.888;2022-09-21T03:30:26;7.70;99.90
34153;DHT22;20426;48.372;10.888;2022-09-21T03:30:58;7.70;99.90
34153;DHT22;20426;48.372;10.888;2022-09-21T03:31:29;7.70;99.90
34153;DHT22;20426;48.372;10.888;2022-09-21T03:32:01;7.70;99.90
34153;DHT22;20426;48.372;10.888;2022-09-21T03:32:33;7.80;99.90
34153;DHT22;20426;48.372;10.888;2022-09-21T03:33:04;7.80;99.90
34153;DHT22;20426;48.372;10.888;2022-09-21T03:33:35;7.80;99.90
34153;DHT22;20426;48.372;10.888;2022-09-21T03:34:06;7.80;99.90
34153;DHT22;20426;48.372;10.888;2022-09-21T03:34:36;7.80;99.90
34153;DHT22;20426;48.372;10.888;2022-09-21T03:35:07;7.80;99.90
34153;DHT22;20426;48.372;10.888;2022-09-21T03:35:38;7.80;99.90
34153;DHT22;20426;48.372;10.888;2022-09-21T03:36:09;7.80;99.90
34153;DHT22;20426;48.372;10.888;2022-09-21T03:36:40;7.80;99.90
34153;DHT22;20426;48.372;10.888;2022-09-21T03:37:11;7.80;99.90
34153;DHT22;20426;48.372;10.888;2022-09-21T03:37:42;7.80;99.90
34153;DHT22;20426;48.372;10.888;2022-09-21T03:38:13;7.80;99.90
34153;DHT22;20426;48.372;10.888;2022-09-21T03:38:45;7.80;99.90
34153;DHT22;20426;48.372;10.888;2022-09-21T03:39:16;7.80;99.90
34153;DHT22;20426;48.372;10.888;2022-09-21T03:39:47;7.80;99.90
34153;DHT22;20426;48.372;10.888;2022-09-21T03:40:18;7.80;99.90
34153;DHT22;20426;48.372;10.888;2022-09-21T03:40:49;7.80;99.90
34153;DHT22;20426;48.372;10.888;2022-09-21T03:41:20;7.80;99.90
34153;DHT22;20426;48.372;10.888;2022-09-21T03:41:51;7.80;99.90
34153;DHT22;20426;48.372;10.888;2022-09-21T03:42:22;7.80;99.90
34153;DHT22;20426;48.372;10.888;2022-09-21T03:42:53;7.80;99.90
34153;DHT22;20426;48.372;10.888;2022-09-21T03:43:24;7.80;99.90
34153;DHT22;20426;48.372;10.888;2022-09-21T03:43:55;7.80;99.90
34153;DHT22;20426;48.372;10.888;2022-09-21T03:44:26;7.70;99.90
34153;DHT22;20426;48.372;10.888;2022-09-21T03:44:57;7.70;99.90
34153;DHT22;20426;48.372;10.888;2022-09-21T03:45:27;7.70;99.90
34153;DHT22;20426;48.372;10.888;2022-09-21T03:46:37;7.70;99.90
34153;DHT22;20426;48.372;10.888;2022-09-21T03:47:07;7.70;99.90
34153;DHT22;20426;48.372;10.888;2022-09-21T03:47:38;7.70;99.90
34153;DHT22;20426;48.372;10.888;2022-09-21T03:48:10;7.70;99.90
34153;DHT22;20426;48.372;10.888;2022-09-21T03:48:41;7.70;99.90
34153;DHT22;20426;48.372;10.888;2022-09-21T03:49:17;7.70;99.90
34153;DHT22;20426;48.372;10.888;2022-09-21T03:49:47;7.70;99.90
34153;DHT22;20426;48.372;10.888;2022-09-21T03:50:18;7.70;99.90
34153;DHT22;20426;48.372;10.888;2022-09-21T03:50:49;7.70;99.90
34153;DHT22;20426;48.372;10.888;2022-09-21T03:51:20;7.70;99.90
34153;DHT22;20426;48.372;10.888;2022-09-21T03:51:51;7.60;99.90
34153;DHT22;20426;48.372;10.888;2022-09-21T03:52:22;7.70;99.90
34153;DHT22;20426;48.372;10.888;2022-09-21T03:52:54;7.70;99.90
34153;DHT22;20426;48.372;10.888;2022-09-21T03:53:24;7.70;99.90
34153;DHT22;20426;48.372;10.888;2022-09-21T03:53:55;7.70;99.90
34153;DHT22;20426;48.372;10.888;2022-09-21T03:54:26;7.60;99.90
34153;DHT22;20426;48.372;10.888;2022-09-21T03:54:57;7.60;99.90
34153;DHT22;20426;48.372;10.888;2022-09-21T03:55:28;7.60;99.90
34153;DHT22;20426;48.372;10.888;2022-09-21T03:55:59;7.60;99.90
34153;DHT22;20426;48.372;10.888;2022-09-21T03:56:30;7.60;99.90
34153;DHT22;20426;48.372;10.888;2022-09-21T03:57:00;7.70;99.90
34153;DHT22;20426;48.372;10.888;2022-09-21T03:57:32;7.70;99.90
34153;DHT22;20426;48.372;10.888;2022-09-21T03:58:03;7.60;99.90
34153;DHT22;20426;48.372;10.888;2022-09-21T03:58:34;7.70;99.90
34153;DHT22;20426;48.372;10.888;2022-09-21T03:59:05;7.70;99.90
34153;DHT22;20426;48.372;10.888;2022-09-21T03:59:36;7.70;99.90
34153;DHT22;20426;48.372;10.888;2022-09-21T04:00:09;7.70;99.90
34153;DHT22;20426;48.372;10.888;2022-09-21T04:00:40;7.80;99.90
34153;DHT22;20426;48.372;10.888;2022-09-21T04:01:12;7.80;99.90
34153;DHT22;20426;48.372;10.888;2022-09-21T04:01:43;7.80;99.90
34153;DHT22;20426;48.372;10.888;2022-09-21T04:02:14;7.80;99.90
34153;DHT22;20426;48.372;10.888;2022-09-21T04:02:45;7.80;99.90
34153;DHT22;20426;48.372;10.888;2022-09-21T04:03:16;7.80;99.90
34153;DHT22;20426;48.372;10.888;2022-09-21T04:03:47;7.70;99.90
34153;DHT22;20426;48.372;10.888;2022-09-21T04:04:18;7.70;99.90
34153;DHT22;20426;48.372;10.888;2022-09-21T04:04:49;7.70;99.90